• Join FlightAware (Why Join?)
  • Login
  • US Flag 
07:23PM EDT


 

Airport Tracker/Info


-or-


 

Live Flight TrackerFlight Track Log ✈ N75ZM ✈ 24-Jan-2014 ✈ KPDK - KISM

Flight Track Log - Related Links

Times and Time Zones

All times are in EST time to prevent confusion due to time zone crossing. See the N75ZM flight status page for this flight to view local times or setup timezone preferences in your user account.

Time Position Orientation Groundspeed Altitude Reporting Facility
EST Latitude Longitude Course Direction KTS MPH feet Rate Location/Type
07:29AM 33.9333 -84.3167 174° South 140 161 2,700  Level Atlanta TRACON
07:30AM 33.9333 -84.3500 270° West 160 184 3,700 960 Climbing Atlanta TRACON
07:31AM 33.9000 -84.4000 231° Southwest 150 173 4,700 960 Climbing Atlanta TRACON
07:32AM 33.8667 -84.4167 203° Southwest 167 192 5,700 600 Climbing Atlanta TRACON
07:33AM 33.8167 -84.4167 180° South 183 211 6,000  Climbing Atlanta TRACON
07:36AM 33.6500 -84.4000 174° South 196 226 5,900 -60 Descending Atlanta TRACON
07:38AM 33.5500 -84.3833 172° South 193 222 5,900  Level Atlanta TRACON
07:39AM 33.5000 -84.3667 164° South 195 224 5,900  Level Atlanta TRACON
07:40AM 33.4500 -84.3500 164° South 197 227 5,900  Level Atlanta TRACON
07:41AM 33.4000 -84.3167 151° Southeast 200 230 5,900 120 Level Atlanta TRACON
07:44AM 33.2667 -84.2000 164° South 188 216 6,400 120 Climbing Atlanta TRACON
07:47AM 33.1500 -84.0667 180° South 204 235 6,900 120 Climbing Atlanta TRACON
07:48AM 33.1000 -84.0333 151° Southeast 206 237 6,900  Level Atlanta TRACON
07:49AM 33.0500 -83.9833 140° Southeast 206 237 7,000  Climbing Atlanta TRACON
07:50AM 33.0167 -83.9500 140° Southeast 206 237 7,000  Level Atlanta TRACON
07:51AM 32.9667 -83.9000 140° Southeast 206 237 7,000  Level Atlanta TRACON
07:52AM 32.9167 -83.8667 151° Southeast 206 237 7,000  Level Atlanta TRACON
07:55AM 32.7833 -83.7333 140° Southeast 206 237 7,000  Level Atlanta TRACON
07:56AM 32.7333 -83.6833 140° Southeast 201 231 7,000  Level Atlanta TRACON
07:57AM 32.7000 -83.6500 140° Southeast 210 242 7,000  Level Atlanta TRACON
07:58AM 32.6500 -83.6000 140° Southeast 198 228 7,000 -60 Level Atlanta TRACON
07:59AM 32.6000 -83.5667 151° Southeast 205 236 6,900 -60 Descending Atlanta TRACON
08:00AM 32.5667 -83.5167 128° Southeast 207 238 6,900  Level Atlanta TRACON
08:02AM 32.4597 -83.4342 147° Southeast 206 237 6,900  Level Jacksonville Center
08:03AM 32.4139 -83.3897 141° Southeast 206 237 6,900  Level Jacksonville Center
08:04AM 32.3683 -83.3525 145° Southeast 201 231 6,900  Level Jacksonville Center
08:05AM 32.3139 -83.3325 163° South 196 226 6,900  Level Jacksonville Center
08:06AM 32.2597 -83.3128 163° South 201 231 6,900  Level Jacksonville Center
08:07AM 32.2139 -83.2756 146° Southeast 201 231 6,900  Level Jacksonville Center
08:08AM 32.1703 -83.2314 139° Southeast 201 231 6,900  Level Jacksonville Center
08:09AM 32.1244 -83.1919 144° Southeast 206 237 6,900  Level Jacksonville Center
08:10AM 32.0847 -83.1525 140° Southeast 206 237 6,900  Level Jacksonville Center
08:11AM 32.0411 -83.1108 141° Southeast 206 237 6,900  Level Jacksonville Center
08:12AM 31.9972 -83.0689 141° Southeast 201 231 6,900  Level Jacksonville Center
08:13AM 31.9556 -83.0272 140° Southeast 201 231 6,900  Level Jacksonville Center
08:14AM 31.9117 -82.9856 141° Southeast 201 231 6,900  Level Jacksonville Center
08:15AM 31.8681 -82.9439 141° Southeast 201 231 6,900  Level Jacksonville Center
08:16AM 31.8242 -82.9022 141° Southeast 201 231 6,900  Level Jacksonville Center
08:17AM 31.7825 -82.8608 140° Southeast 201 231 6,900  Level Jacksonville Center
08:18AM 31.7386 -82.8192 141° Southeast 201 231 6,900  Level Jacksonville Center
08:19AM 31.6947 -82.7778 141° Southeast 201 231 6,900  Level Jacksonville Center
08:20AM 31.6528 -82.7364 140° Southeast 201 231 6,900  Level Jacksonville Center
08:21AM 31.6089 -82.6950 141° Southeast 201 231 7,000  Climbing Jacksonville Center
08:22AM 31.5672 -82.6561 142° Southeast 201 231 6,900 -60 Descending Jacksonville Center
08:23AM 31.5231 -82.6147 141° Southeast 201 231 6,900  Level Jacksonville Center
08:24AM 31.4814 -82.5733 140° Southeast 201 231 6,900  Level Jacksonville Center
08:25AM 31.4394 -82.5322 140° Southeast 201 231 7,000  Climbing Jacksonville Center
08:26AM 31.3975 -82.4933 142° Southeast 201 231 6,900 -60 Descending Jacksonville Center
08:27AM 31.3514 -82.4547 144° Southeast 201 231 6,900  Level Jacksonville Center
08:28AM 31.3075 -82.4136 141° Southeast 201 231 6,900  Level Jacksonville Center
08:29AM 31.2636 -82.3725 141° Southeast 201 231 6,900  Level Jacksonville Center
08:30AM 31.2217 -82.3339 142° Southeast 201 231 6,900 -180 Level Jacksonville Center
08:31AM 31.1775 -82.2928 141° Southeast 201 231 6,600 -420 Descending Jacksonville Center
08:32AM 31.1336 -82.2494 140° Southeast 201 231 6,100 -300 Descending Jacksonville Center
08:33AM 31.0894 -82.2083 141° Southeast 201 231 6,000 -300 Descending Jacksonville Center
08:33AM 31.0747 -82.1964 145° Southeast 207 238 5,800 -240 Descending Jacksonville Center
08:34AM 31.0475 -82.1650 135° Southeast 200 230 5,800 120 Level Jacksonville Center
08:34AM 31.0453 -82.1650 180° South 201 231 5,900 60 Climbing Jacksonville Center
08:35AM 30.9992 -82.1219 141° Southeast 194 223 5,900  Level Jacksonville Center
08:36AM 30.9592 -82.0858 142° Southeast 201 231 6,000  Climbing Jacksonville Center
08:36AM 30.9531 -82.0786 135° Southeast 198 228 5,900 -120 Descending Jacksonville Center
08:37AM 30.9089 -82.0378 142° Southeast 199 229 5,900  Level Jacksonville Center
08:38AM 30.8753 -82.0067 142° Southeast 201 231 6,000  Climbing Jacksonville Center
08:38AM 30.8667 -81.9994 144° Southeast 200 230 5,900  Descending Jacksonville Center
08:39AM 30.8289 -81.9661 143° Southeast 201 231 6,000  Climbing Jacksonville Center
08:39AM 30.8228 -81.9589 135° Southeast 201 231 5,900 -120 Descending Jacksonville Center
08:40AM 30.7806 -81.9181 140° Southeast 199 229 5,900  Level Jacksonville Center
08:41AM 30.7450 -81.8869 143° Southeast 199 229 5,900 60 Level Jacksonville Center
08:41AM 30.7447 -81.8847 98° East 201 231 6,000  Climbing Jacksonville Center
08:42AM 30.7006 -81.8464 143° Southeast 197 227 5,900  Descending Jacksonville Center
08:42AM 30.7006 -81.8464 143° Southeast 201 231 6,000  Climbing Jacksonville Center
08:43AM 30.6586 -81.8058 140° Southeast 196 226 5,900  Descending Jacksonville Center
08:43AM 30.6564 -81.8058 180° South 201 231 6,000  Climbing Jacksonville Center
08:44AM 30.6081 -81.7581 140° Southeast 197 227 5,900 -60 Descending Jacksonville Center
08:45AM 30.5658 -81.7200 142° Southeast 198 228 5,900  Level Jacksonville Center
08:46AM 30.5217 -81.6819 143° Southeast 197 227 5,900  Level Jacksonville Center
08:47AM 30.4839 -81.6439 139° Southeast 199 229 5,900  Level Jacksonville Center
08:48AM 30.4375 -81.6036 143° Southeast 199 229 5,900  Level Jacksonville Center
08:49AM 30.3953 -81.5633 141° Southeast 198 228 5,900  Level Jacksonville Center
08:50AM 30.3489 -81.5228 143° Southeast 198 228 5,900  Level Jacksonville Center
08:51AM 30.3028 -81.5139 171° South 176 203 5,900 -60 Level Jacksonville Center
08:52AM 30.2361 -81.5053 174° South 180 207 5,800  Descending Jacksonville Center
08:53AM 30.1964 -81.5058 181° South 179 206 5,900  Climbing Jacksonville Center
08:54AM 30.1461 -81.5067 181° South 178 205 5,900  Level Jacksonville Center
08:55AM 30.0961 -81.5000 173° South 179 206 5,900  Level Jacksonville Center
08:56AM 30.0458 -81.5008 181° South 180 207 5,900  Level Jacksonville Center
08:57AM 29.9936 -81.4967 176° South 183 211 5,900  Level Jacksonville Center
08:58AM 29.9478 -81.4975 181° South 184 212 5,900  Level Jacksonville Center
08:59AM 29.8894 -81.4958 179° South 184 212 5,900  Level Jacksonville Center
09:00AM 29.8392 -81.4919 176° South 183 211 5,900  Level Jacksonville Center
09:01AM 29.7892 -81.4903 178° South 180 207 5,900  Level Jacksonville Center
09:02AM 29.7389 -81.4908 181° South 178 205 5,900  Level Jacksonville Center
09:03AM 29.6847 -81.4869 176° South 178 205 5,900  Level Jacksonville Center
09:04AM 29.6367 -81.4853 178° South 176 203 5,900  Level Jacksonville Center
09:05AM 29.5864 -81.4786 173° South 183 211 5,900  Level Jacksonville Center
09:06AM 29.5361 -81.4628 165° South 183 211 5,900  Level Jacksonville Center
09:07AM 29.4797 -81.4492 168° South 182 209 5,900  Level Jacksonville Center
09:08AM 29.4294 -81.4381 169° South 183 211 5,900  Level Jacksonville Center
09:09AM 29.3792 -81.4342 176° South 182 209 5,900  Level Jacksonville Center
09:11AM 29.3208 -81.4256 173° South 181 208 5,900  Level Jacksonville Center
09:12AM 29.2706 -81.4167 171° South 183 211 5,900 -240 Level Jacksonville Center
09:14AM 29.1500 -81.4000 173° South 196 226 5,300 -360 Descending Orlando TRACON
09:15AM 29.1000 -81.4000 180° South 192 221 4,800 -540 Descending Orlando TRACON
09:16AM 29.0500 -81.3833 164° South 185 213 4,300 -480 Descending Orlando TRACON
09:17AM 29.0000 -81.3833 180° South 185 213 3,900 -240 Descending Orlando TRACON
09:18AM 28.9500 -81.3667 164° South 187 215 3,900  Level Orlando TRACON
09:19AM 28.9000 -81.3833 196° South 180 207 3,900  Level Orlando TRACON
09:20AM 28.8667 -81.4167 221° Southwest 182 209 3,900  Level Orlando TRACON
09:21AM 28.8167 -81.4500 210° Southwest 182 209 3,900  Level Orlando TRACON
09:22AM 28.7667 -81.4833 210° Southwest 179 206 3,900  Level Orlando TRACON
09:23AM 28.7333 -81.5000 204° Southwest 178 205 3,900  Level Orlando TRACON
09:24AM 28.6833 -81.5000 180° South 183 211 3,900 -180 Level Orlando TRACON
09:25AM 28.6167 -81.5000 180° South 189 217 3,600 -420 Descending Orlando TRACON
09:26AM 28.5833 -81.5167 204° Southwest 188 216 3,100 -360 Descending Orlando TRACON
09:27AM 28.5167 -81.5167 180° South 190 219 2,900 -120 Descending Orlando TRACON
09:28AM 28.4667 -81.5167 180° South 190 219 2,900  Level Orlando TRACON
09:29AM 28.4167 -81.5167 180° South 193 222 2,900  Level Orlando TRACON
09:30AM 28.3667 -81.5167 180° South 193 222 2,900  Level Orlando TRACON
09:31AM 28.3000 -81.5333 192° South 182 209 2,900 -480 Level Orlando TRACON
09:32AM 28.2667 -81.5333 180° South 165 190 2,000 -540 Descending Orlando TRACON
09:33AM 28.2167 -81.5000 150° Southeast 152 175 1,900 -360 Descending Orlando TRACON
09:34AM 28.2333 -81.4667 60° Northeast 102 117 1,300 -420 Descending Orlando TRACON
09:35AM 28.2500 -81.4500 41° Northeast 100 115 1,100 -300 Descending Orlando TRACON
09:36AM 28.2500 -81.4167 90° East 79 91 800 -300 Descending Orlando TRACON
09:38AM 28.2833 -81.4333 30° Northeast  Level FlightAware Approximate
09:45AM 28.2898 -81.4371 30° Northeast  Level Estimated
09:46AM 28.2898 -81.4371 30° Northeast  Level Estimated
09:47AM 28.2898 -81.4371 30° Northeast  Level Estimated
09:48AM 28.2898 -81.4371 30° Northeast  Level Estimated